sensor_id;sensor_type;location;lat;lon;timestamp;pressure;altitude;pressure_sealevel;temperature;humidity
26859;BME280;14429;48.346;16.338;2023-06-26T00:02:20;99784.72;;;26.28;48.99
26859;BME280;14429;48.346;16.338;2023-06-26T00:04:46;99784.81;;;26.41;49.05
26859;BME280;14429;48.346;16.338;2023-06-26T00:07:12;99789.00;;;26.44;48.87
26859;BME280;14429;48.346;16.338;2023-06-26T00:09:37;99784.81;;;26.41;48.39
26859;BME280;14429;48.346;16.338;2023-06-26T00:12:03;99785.47;;;26.50;48.46
26859;BME280;14429;48.346;16.338;2023-06-26T00:14:29;99792.00;;;26.55;48.60
26859;BME280;14429;48.346;16.338;2023-06-26T00:16:54;99792.91;;;26.62;48.42
26859;BME280;14429;48.346;16.338;2023-06-26T00:19:20;99791.22;;;26.61;48.06
26859;BME280;14429;48.346;16.338;2023-06-26T00:21:47;99792.00;;;26.55;48.12
26859;BME280;14429;48.346;16.338;2023-06-26T00:24:12;99791.00;;;26.56;48.43
26859;BME280;14429;48.346;16.338;2023-06-26T00:26:38;99791.22;;;26.61;48.44
26859;BME280;14429;48.346;16.338;2023-06-26T00:29:03;99788.88;;;26.58;48.03
26859;BME280;14429;48.346;16.338;2023-06-26T00:31:28;99789.72;;;26.52;48.18
26859;BME280;14429;48.346;16.338;2023-06-26T00:33:54;99790.28;;;26.41;48.49
26859;BME280;14429;48.346;16.338;2023-06-26T00:36:19;99792.00;;;26.55;48.41
26859;BME280;14429;48.346;16.338;2023-06-26T00:38:46;99785.25;;;26.51;48.16
26859;BME280;14429;48.346;16.338;2023-06-26T00:41:11;99786.94;;;26.46;48.27
26859;BME280;14429;48.346;16.338;2023-06-26T00:43:37;99781.00;;;26.42;48.55
26859;BME280;14429;48.346;16.338;2023-06-26T00:46:02;99781.19;;;26.34;48.93
26859;BME280;14429;48.346;16.338;2023-06-26T00:48:28;99784.28;;;26.25;48.75
26859;BME280;14429;48.346;16.338;2023-06-26T00:50:54;99788.50;;;26.27;48.75
26859;BME280;14429;48.346;16.338;2023-06-26T00:53:19;99786.00;;;26.32;48.94
26859;BME280;14429;48.346;16.338;2023-06-26T00:55:47;99791.53;;;26.39;48.67
26859;BME280;14429;48.346;16.338;2023-06-26T00:58:12;99784.59;;;25.20;46.09
26859;BME280;14429;48.346;16.338;2023-06-26T01:00:38;99787.91;;;25.51;49.69
26859;BME280;14429;48.346;16.338;2023-06-26T01:03:03;99785.22;;;25.57;50.56
26859;BME280;14429;48.346;16.338;2023-06-26T01:05:29;99781.53;;;25.98;49.81
26859;BME280;14429;48.346;16.338;2023-06-26T01:07:57;99782.31;;;26.13;48.97
26859;BME280;14429;48.346;16.338;2023-06-26T01:10:23;99776.69;;;26.21;48.88
26859;BME280;14429;48.346;16.338;2023-06-26T01:12:50;99772.09;;;26.27;49.05
26859;BME280;14429;48.346;16.338;2023-06-26T01:15:16;99777.59;;;26.34;48.78
26859;BME280;14429;48.346;16.338;2023-06-26T01:17:42;99774.66;;;26.35;48.30
26859;BME280;14429;48.346;16.338;2023-06-26T01:20:08;99778.22;;;26.29;48.70
26859;BME280;14429;48.346;16.338;2023-06-26T01:22:38;99773.38;;;26.31;48.94
26859;BME280;14429;48.346;16.338;2023-06-26T01:25:13;99779.06;;;26.36;48.55
26859;BME280;14429;48.346;16.338;2023-06-26T01:27:43;99765.38;;;26.36;47.96
26859;BME280;14429;48.346;16.338;2023-06-26T01:30:10;99772.75;;;26.29;48.51
26859;BME280;14429;48.346;16.338;2023-06-26T01:32:36;99769.56;;;26.26;49.03
26859;BME280;14429;48.346;16.338;2023-06-26T01:35:04;99770.41;;;26.26;48.62
26859;BME280;14429;48.346;16.338;2023-06-26T01:37:30;99769.13;;;26.29;48.41
26859;BME280;14429;48.346;16.338;2023-06-26T01:39:56;99769.38;;;26.00;47.60
26859;BME280;14429;48.346;16.338;2023-06-26T01:42:21;99761.09;;;26.15;49.13
26859;BME280;14429;48.346;16.338;2023-06-26T01:44:48;99767.00;;;26.18;48.74
26859;BME280;14429;48.346;16.338;2023-06-26T01:47:19;99764.06;;;26.20;48.59
26859;BME280;14429;48.346;16.338;2023-06-26T01:49:51;99756.31;;;26.02;48.99
26859;BME280;14429;48.346;16.338;2023-06-26T01:52:20;99756.63;;;26.07;49.34
26859;BME280;14429;48.346;16.338;2023-06-26T01:54:54;99757.28;;;26.16;48.81
26859;BME280;14429;48.346;16.338;2023-06-26T01:57:20;99754.97;;;26.13;48.71
26859;BME280;14429;48.346;16.338;2023-06-26T01:59:48;99748.03;;;26.17;48.83
26859;BME280;14429;48.346;16.338;2023-06-26T02:02:16;99754.41;;;26.24;48.86
26859;BME280;14429;48.346;16.338;2023-06-26T02:04:41;99751.88;;;26.22;48.45
26859;BME280;14429;48.346;16.338;2023-06-26T02:07:06;99752.72;;;26.23;48.40
26859;BME280;14429;48.346;16.338;2023-06-26T02:09:32;99756.25;;;26.17;49.05
26859;BME280;14429;48.346;16.338;2023-06-26T02:11:57;99763.66;;;26.23;48.64
26859;BME280;14429;48.346;16.338;2023-06-26T02:14:23;99755.69;;;26.27;48.27
26859;BME280;14429;48.346;16.338;2023-06-26T02:16:49;99752.06;;;26.21;48.47
26859;BME280;14429;48.346;16.338;2023-06-26T02:19:15;99753.09;;;26.20;48.90
26859;BME280;14429;48.346;16.338;2023-06-26T02:21:40;99752.28;;;26.19;48.69
26859;BME280;14429;48.346;16.338;2023-06-26T02:24:06;99755.00;;;26.19;48.01
26859;BME280;14429;48.346;16.338;2023-06-26T02:26:31;99752.22;;;26.13;48.58
26859;BME280;14429;48.346;16.338;2023-06-26T02:28:57;99753.91;;;26.14;48.90
26859;BME280;14429;48.346;16.338;2023-06-26T02:31:22;99747.81;;;26.12;48.67
26859;BME280;14429;48.346;16.338;2023-06-26T02:33:49;99757.16;;;25.97;48.88
26859;BME280;14429;48.346;16.338;2023-06-26T02:36:14;99758.38;;;25.94;49.27
26859;BME280;14429;48.346;16.338;2023-06-26T02:38:40;99767.38;;;25.20;44.90
26859;BME280;14429;48.346;16.338;2023-06-26T02:41:05;99758.56;;;25.66;49.54
26859;BME280;14429;48.346;16.338;2023-06-26T02:43:30;99769.31;;;25.94;49.09
26859;BME280;14429;48.346;16.338;2023-06-26T02:45:56;99762.41;;;25.98;48.99
26859;BME280;14429;48.346;16.338;2023-06-26T02:48:21;99775.28;;;26.04;49.07
26859;BME280;14429;48.346;16.338;2023-06-26T02:50:48;99772.81;;;26.09;48.57
26859;BME280;14429;48.346;16.338;2023-06-26T02:53:13;99772.28;;;25.99;48.78
26859;BME280;14429;48.346;16.338;2023-06-26T02:55:39;99774.56;;;25.69;46.91
26859;BME280;14429;48.346;16.338;2023-06-26T02:58:04;99779.56;;;25.86;49.26
26859;BME280;14429;48.346;16.338;2023-06-26T03:00:30;99779.00;;;25.97;48.73
26859;BME280;14429;48.346;16.338;2023-06-26T03:02:55;99781.78;;;26.03;48.75
26859;BME280;14429;48.346;16.338;2023-06-26T03:05:20;99781.59;;;26.04;48.69
26859;BME280;14429;48.346;16.338;2023-06-26T03:07:47;99773.78;;;26.01;48.83
26859;BME280;14429;48.346;16.338;2023-06-26T03:10:13;99782.00;;;26.01;48.51
26859;BME280;14429;48.346;16.338;2023-06-26T03:12:38;99782.34;;;25.92;48.90
26859;BME280;14429;48.346;16.338;2023-06-26T03:15:04;99783.66;;;25.96;49.21
26859;BME280;14429;48.346;16.338;2023-06-26T03:17:29;99774.78;;;25.94;48.81
26859;BME280;14429;48.346;16.338;2023-06-26T03:19:55;99790.34;;;25.94;48.82
26859;BME280;14429;48.346;16.338;2023-06-26T03:22:20;99786.13;;;25.91;48.95
26859;BME280;14429;48.346;16.338;2023-06-26T03:24:47;99785.72;;;25.94;49.02
26859;BME280;14429;48.346;16.338;2023-06-26T03:27:12;99783.19;;;25.93;48.64
26859;BME280;14429;48.346;16.338;2023-06-26T03:29:38;99774.16;;;25.92;48.72
26859;BME280;14429;48.346;16.338;2023-06-26T03:32:04;99782.47;;;25.84;49.18
26859;BME280;14429;48.346;16.338;2023-06-26T03:34:29;99776.88;;;25.92;48.79
26859;BME280;14429;48.346;16.338;2023-06-26T03:36:55;99780.63;;;25.91;48.66
26859;BME280;14429;48.346;16.338;2023-06-26T03:39:20;99785.88;;;25.86;49.10
26859;BME280;14429;48.346;16.338;2023-06-26T03:41:47;99787.78;;;25.86;49.06
26859;BME280;14429;48.346;16.338;2023-06-26T03:44:12;99796.84;;;25.66;49.20
26859;BME280;14429;48.346;16.338;2023-06-26T03:46:38;99784.34;;;25.77;48.74
26859;BME280;14429;48.346;16.338;2023-06-26T03:49:03;99790.56;;;25.92;48.13
26859;BME280;14429;48.346;16.338;2023-06-26T03:51:29;99795.28;;;26.04;47.46
26859;BME280;14429;48.346;16.338;2023-06-26T03:53:54;99784.34;;;25.77;46.55
26859;BME280;14429;48.346;16.338;2023-06-26T03:56:19;99795.38;;;25.90;47.49
26859;BME280;14429;48.346;16.338;2023-06-26T03:58:46;99795.91;;;26.06;46.78
26859;BME280;14429;48.346;16.338;2023-06-26T04:01:11;99800.53;;;26.06;46.73
26859;BME280;14429;48.346;16.338;2023-06-26T04:03:37;99800.63;;;26.12;46.32
26859;BME280;14429;48.346;16.338;2023-06-26T04:06:02;99797.56;;;26.01;46.65
26859;BME280;14429;48.346;16.338;2023-06-26T04:08:28;99802.13;;;25.94;47.07
26859;BME280;14429;48.346;16.338;2023-06-26T04:10:53;99791.25;;;26.00;47.08
26859;BME280;14429;48.346;16.338;2023-06-26T04:13:19;99798.50;;;25.87;47.23
26859;BME280;14429;48.346;16.338;2023-06-26T04:15:46;99802.97;;;25.95;47.25
26859;BME280;14429;48.346;16.338;2023-06-26T04:18:11;99792.09;;;26.01;47.44
26859;BME280;14429;48.346;16.338;2023-06-26T04:20:39;99795.44;;;26.03;47.02
26859;BME280;14429;48.346;16.338;2023-06-26T04:23:04;99794.59;;;26.02;47.25
26859;BME280;14429;48.346;16.338;2023-06-26T04:25:30;99803.97;;;26.08;47.44
26859;BME280;14429;48.346;16.338;2023-06-26T04:27:55;99796.81;;;26.13;47.15
26859;BME280;14429;48.346;16.338;2023-06-26T04:30:21;99788.47;;;26.21;46.86
26859;BME280;14429;48.346;16.338;2023-06-26T04:32:47;99783.06;;;25.73;47.66
26859;BME280;14429;48.346;16.338;2023-06-26T04:35:13;99796.81;;;26.13;47.12
26859;BME280;14429;48.346;16.338;2023-06-26T04:37:38;99790.19;;;26.28;46.53
26859;BME280;14429;48.346;16.338;2023-06-26T04:40:05;99789.66;;;26.46;45.88
26859;BME280;14429;48.346;16.338;2023-06-26T04:42:30;99795.41;;;26.57;45.43
26859;BME280;14429;48.346;16.338;2023-06-26T04:44:56;99784.28;;;26.65;45.11
26859;BME280;14429;48.346;16.338;2023-06-26T04:47:21;99799.28;;;26.69;45.22
26859;BME280;14429;48.346;16.338;2023-06-26T04:49:48;99795.09;;;26.73;45.18
26859;BME280;14429;48.346;16.338;2023-06-26T04:52:13;99789.88;;;26.84;44.66
26859;BME280;14429;48.346;16.338;2023-06-26T04:54:39;99790.50;;;26.80;45.31
26859;BME280;14429;48.346;16.338;2023-06-26T04:57:05;99802.69;;;26.77;45.56
26859;BME280;14429;48.346;16.338;2023-06-26T04:59:30;99795.16;;;26.92;44.77
26859;BME280;14429;48.346;16.338;2023-06-26T05:01:56;99793.09;;;27.00;44.98
26859;BME280;14429;48.346;16.338;2023-06-26T05:04:21;99803.63;;;27.03;44.85
26859;BME280;14429;48.346;16.338;2023-06-26T05:06:48;99800.66;;;26.98;44.59
26859;BME280;14429;48.346;16.338;2023-06-26T05:09:13;99802.78;;;26.96;44.90
26859;BME280;14429;48.346;16.338;2023-06-26T05:11:39;99802.34;;;26.93;45.32
26859;BME280;14429;48.346;16.338;2023-06-26T05:14:04;99806.16;;;26.98;44.90
26859;BME280;14429;48.346;16.338;2023-06-26T05:16:30;99807.47;;;27.15;44.78
26859;BME280;14429;48.346;16.338;2023-06-26T05:18:55;99808.69;;;27.06;44.77
26859;BME280;14429;48.346;16.338;2023-06-26T05:21:21;99807.22;;;26.97;45.15
26859;BME280;14429;48.346;16.338;2023-06-26T05:23:49;99794.38;;;27.10;44.72
26859;BME280;14429;48.346;16.338;2023-06-26T05:26:17;99801.91;;;26.96;45.19
26859;BME280;14429;48.346;16.338;2023-06-26T05:28:43;99802.13;;;26.94;45.26
26859;BME280;14429;48.346;16.338;2023-06-26T05:31:09;99805.09;;;26.99;45.11
26859;BME280;14429;48.346;16.338;2023-06-26T05:33:35;99805.53;;;27.03;44.94
26859;BME280;14429;48.346;16.338;2023-06-26T05:36:04;99801.88;;;26.83;45.68
26859;BME280;14429;48.346;16.338;2023-06-26T05:38:30;99809.44;;;26.81;45.49
26859;BME280;14429;48.346;16.338;2023-06-26T05:40:57;99806.28;;;26.84;45.41
26859;BME280;14429;48.346;16.338;2023-06-26T05:43:23;99807.56;;;26.81;45.51
26859;BME280;14429;48.346;16.338;2023-06-26T05:45:49;99801.03;;;26.82;45.66
26859;BME280;14429;48.346;16.338;2023-06-26T05:48:14;99808.19;;;26.83;45.32
26859;BME280;14429;48.346;16.338;2023-06-26T05:50:40;99809.69;;;26.86;45.38
26859;BME280;14429;48.346;16.338;2023-06-26T05:53:06;99803.59;;;26.90;45.42
26859;BME280;14429;48.346;16.338;2023-06-26T05:55:32;99805.69;;;26.88;45.49
26859;BME280;14429;48.346;16.338;2023-06-26T05:57:59;99792.63;;;26.90;45.52
26859;BME280;14429;48.346;16.338;2023-06-26T06:00:27;99793.69;;;26.89;45.47
26859;BME280;14429;48.346;16.338;2023-06-26T06:02:52;99793.53;;;27.10;45.16
26859;BME280;14429;48.346;16.338;2023-06-26T06:05:18;99800.81;;;27.56;43.90
26859;BME280;14429;48.346;16.338;2023-06-26T06:07:43;99793.63;;;27.35;44.48
26859;BME280;14429;48.346;16.338;2023-06-26T06:10:09;99785.97;;;27.25;44.54
26859;BME280;14429;48.346;16.338;2023-06-26T06:12:35;99786.88;;;27.32;44.39
26859;BME280;14429;48.346;16.338;2023-06-26T06:15:02;99796.56;;;27.40;44.29
26859;BME280;14429;48.346;16.338;2023-06-26T06:17:27;99793.84;;;27.47;44.18
26859;BME280;14429;48.346;16.338;2023-06-26T06:19:52;99785.25;;;27.75;43.33
26859;BME280;14429;48.346;16.338;2023-06-26T06:22:18;99789.44;;;27.46;43.81
26859;BME280;14429;48.346;16.338;2023-06-26T06:24:43;99792.13;;;27.27;44.60
26859;BME280;14429;48.346;16.338;2023-06-26T06:27:09;99791.97;;;27.41;44.58
26859;BME280;14429;48.346;16.338;2023-06-26T06:29:34;99792.19;;;27.84;43.22
26859;BME280;14429;48.346;16.338;2023-06-26T06:32:01;99794.50;;;27.62;43.79
26859;BME280;14429;48.346;16.338;2023-06-26T06:34:26;99796.53;;;27.28;44.45
26859;BME280;14429;48.346;16.338;2023-06-26T06:36:52;99787.25;;;27.22;44.98
26859;BME280;14429;48.346;16.338;2023-06-26T06:39:17;99793.22;;;27.38;44.59
26859;BME280;14429;48.346;16.338;2023-06-26T06:41:42;99796.81;;;27.52;44.58
26859;BME280;14429;48.346;16.338;2023-06-26T06:44:08;99790.72;;;27.69;44.08
26859;BME280;14429;48.346;16.338;2023-06-26T06:46:33;99792.00;;;27.79;43.79
26859;BME280;14429;48.346;16.338;2023-06-26T06:49:00;99793.22;;;27.51;44.14
26859;BME280;14429;48.346;16.338;2023-06-26T06:51:26;99789.25;;;27.86;43.65
26859;BME280;14429;48.346;16.338;2023-06-26T06:53:51;99791.75;;;27.55;44.12
26859;BME280;14429;48.346;16.338;2023-06-26T06:56:17;99788.13;;;27.29;44.61
26859;BME280;14429;48.346;16.338;2023-06-26T06:58:42;99786.19;;;27.17;44.82
26859;BME280;14429;48.346;16.338;2023-06-26T07:01:08;99786.81;;;27.25;44.76
26859;BME280;14429;48.346;16.338;2023-06-26T07:03:34;99791.88;;;27.22;45.16
26859;BME280;14429;48.346;16.338;2023-06-26T07:06:01;99789.72;;;27.11;45.26
26859;BME280;14429;48.346;16.338;2023-06-26T07:08:26;99786.84;;;27.19;44.82
26859;BME280;14429;48.346;16.338;2023-06-26T07:10:52;99789.63;;;27.32;44.70
26859;BME280;14429;48.346;16.338;2023-06-26T07:13:17;99794.91;;;27.46;44.72
26859;BME280;14429;48.346;16.338;2023-06-26T07:15:42;99799.09;;;27.35;44.50
26859;BME280;14429;48.346;16.338;2023-06-26T07:18:08;99795.75;;;27.59;44.25
26859;BME280;14429;48.346;16.338;2023-06-26T07:20:33;99792.44;;;28.02;42.82
26859;BME280;14429;48.346;16.338;2023-06-26T07:23:00;99795.75;;;27.40;44.65
26859;BME280;14429;48.346;16.338;2023-06-26T07:25:25;99794.38;;;27.10;45.33
26859;BME280;14429;48.346;16.338;2023-06-26T07:27:51;99789.31;;;27.14;45.25
26859;BME280;14429;48.346;16.338;2023-06-26T07:30:16;99786.47;;;27.35;44.87
26859;BME280;14429;48.346;16.338;2023-06-26T07:32:44;99791.53;;;27.37;44.65
26859;BME280;14429;48.346;16.338;2023-06-26T07:35:10;99794.91;;;27.39;44.49
26859;BME280;14429;48.346;16.338;2023-06-26T07:37:35;99795.25;;;27.24;44.68
26859;BME280;14429;48.346;16.338;2023-06-26T07:40:02;99801.34;;;27.13;45.44
26859;BME280;14429;48.346;16.338;2023-06-26T07:42:28;99790.56;;;27.05;45.70
26859;BME280;14429;48.346;16.338;2023-06-26T07:44:53;99795.00;;;27.06;45.35
26859;BME280;14429;48.346;16.338;2023-06-26T07:47:19;99793.13;;;27.13;45.20
26859;BME280;14429;48.346;16.338;2023-06-26T07:49:45;99792.31;;;27.19;45.38
26859;BME280;14429;48.346;16.338;2023-06-26T07:52:11;99793.94;;;27.07;45.58
26859;BME280;14429;48.346;16.338;2023-06-26T07:54:36;99796.00;;;26.92;44.97
26859;BME280;14429;48.346;16.338;2023-06-26T07:57:05;99791.63;;;27.04;44.47
26859;BME280;14429;48.346;16.338;2023-06-26T07:59:30;99792.25;;;27.06;45.43
26859;BME280;14429;48.346;16.338;2023-06-26T08:01:57;99794.38;;;27.04;45.21
26859;BME280;14429;48.346;16.338;2023-06-26T08:04:24;99787.38;;;26.95;45.83
26859;BME280;14429;48.346;16.338;2023-06-26T08:06:51;99791.81;;;26.96;45.89
26859;BME280;14429;48.346;16.338;2023-06-26T08:09:18;99786.75;;;27.00;45.92
26859;BME280;14429;48.346;16.338;2023-06-26T08:11:44;99794.31;;;26.85;46.29
26859;BME280;14429;48.346;16.338;2023-06-26T08:14:11;99790.13;;;26.95;45.57
26859;BME280;14429;48.346;16.338;2023-06-26T08:16:36;99792.44;;;26.98;45.31
26859;BME280;14429;48.346;16.338;2023-06-26T08:19:01;99787.19;;;26.97;45.60
26859;BME280;14429;48.346;16.338;2023-06-26T08:21:27;99786.97;;;26.98;45.43
26859;BME280;14429;48.346;16.338;2023-06-26T08:23:52;99786.31;;;26.90;45.74
26859;BME280;14429;48.346;16.338;2023-06-26T08:26:18;99786.50;;;26.88;42.42
26859;BME280;14429;48.346;16.338;2023-06-26T08:28:43;99784.22;;;26.85;43.37
26859;BME280;14429;48.346;16.338;2023-06-26T08:31:10;99786.50;;;26.88;45.73
26859;BME280;14429;48.346;16.338;2023-06-26T08:33:35;99783.38;;;26.91;45.68
26859;BME280;14429;48.346;16.338;2023-06-26T08:36:01;99780.44;;;26.93;45.72
26859;BME280;14429;48.346;16.338;2023-06-26T08:38:26;99776.41;;;26.82;44.45
26859;BME280;14429;48.346;16.338;2023-06-26T08:40:52;99780.41;;;26.86;45.93
26859;BME280;14429;48.346;16.338;2023-06-26T08:43:17;99774.06;;;26.80;45.95
26859;BME280;14429;48.346;16.338;2023-06-26T08:45:43;99774.94;;;26.86;45.99
26859;BME280;14429;48.346;16.338;2023-06-26T08:48:10;99772.19;;;26.86;45.89
26859;BME280;14429;48.346;16.338;2023-06-26T08:50:38;99774.06;;;26.80;45.98
26859;BME280;14429;48.346;16.338;2023-06-26T08:53:05;99769.84;;;26.83;45.43
26859;BME280;14429;48.346;16.338;2023-06-26T08:55:35;99759.13;;;26.88;42.93
26859;BME280;14429;48.346;16.338;2023-06-26T08:58:03;99761.03;;;26.81;43.82
26859;BME280;14429;48.346;16.338;2023-06-26T09:00:29;99759.75;;;26.84;45.96
26859;BME280;14429;48.346;16.338;2023-06-26T09:02:55;99758.03;;;26.77;45.84
26859;BME280;14429;48.346;16.338;2023-06-26T09:05:22;99763.31;;;26.84;43.91
26859;BME280;14429;48.346;16.338;2023-06-26T09:07:48;99753.03;;;26.86;45.97
26859;BME280;14429;48.346;16.338;2023-06-26T09:10:13;99755.16;;;26.97;42.66
26859;BME280;14429;48.346;16.338;2023-06-26T09:12:39;99749.25;;;26.94;45.51
26859;BME280;14429;48.346;16.338;2023-06-26T09:15:05;99748.41;;;26.93;45.81
26859;BME280;14429;48.346;16.338;2023-06-26T09:17:33;99741.22;;;26.92;45.99
26859;BME280;14429;48.346;16.338;2023-06-26T09:20:04;99747.56;;;26.93;45.71
26859;BME280;14429;48.346;16.338;2023-06-26T09:22:33;99750.69;;;26.83;45.84
26859;BME280;14429;48.346;16.338;2023-06-26T09:25:01;99742.47;;;26.83;46.22
26859;BME280;14429;48.346;16.338;2023-06-26T09:27:27;99745.44;;;26.82;45.70
26859;BME280;14429;48.346;16.338;2023-06-26T09:29:53;99736.59;;;26.86;45.77
26859;BME280;14429;48.346;16.338;2023-06-26T09:32:18;99743.97;;;26.99;42.59
26859;BME280;14429;48.346;16.338;2023-06-26T09:34:44;99741.25;;;26.99;44.93
26859;BME280;14429;48.346;16.338;2023-06-26T09:37:11;99737.66;;;26.85;45.98
26859;BME280;14429;48.346;16.338;2023-06-26T09:39:38;99737.84;;;26.78;46.28
26859;BME280;14429;48.346;16.338;2023-06-26T09:42:04;99744.59;;;26.81;46.06
26859;BME280;14429;48.346;16.338;2023-06-26T09:44:31;99734.06;;;26.91;43.69
26859;BME280;14429;48.346;16.338;2023-06-26T09:46:56;99744.63;;;26.94;45.83
26859;BME280;14429;48.346;16.338;2023-06-26T09:49:23;99742.09;;;26.93;45.92
26859;BME280;14429;48.346;16.338;2023-06-26T09:51:50;99742.09;;;26.99;42.19
26859;BME280;14429;48.346;16.338;2023-06-26T09:54:16;99739.59;;;27.04;45.11
26859;BME280;14429;48.346;16.338;2023-06-26T09:56:43;99733.28;;;27.04;42.69
26859;BME280;14429;48.346;16.338;2023-06-26T09:59:08;99731.56;;;27.03;45.54
26859;BME280;14429;48.346;16.338;2023-06-26T10:01:41;99727.78;;;27.10;45.10
26859;BME280;14429;48.346;16.338;2023-06-26T10:04:07;99732.38;;;26.90;46.13
26859;BME280;14429;48.346;16.338;2023-06-26T10:06:33;99722.28;;;26.91;45.78
26859;BME280;14429;48.346;16.338;2023-06-26T10:09:00;99726.50;;;26.93;46.13
26859;BME280;14429;48.346;16.338;2023-06-26T10:11:30;99724.38;;;26.82;46.11
26859;BME280;14429;48.346;16.338;2023-06-26T10:13:59;99720.56;;;26.83;46.21
26859;BME280;14429;48.346;16.338;2023-06-26T10:16:26;99708.13;;;26.81;46.37
26859;BME280;14429;48.346;16.338;2023-06-26T10:18:53;99714.22;;;26.70;46.55
26859;BME280;14429;48.346;16.338;2023-06-26T10:21:22;99713.81;;;26.80;46.38
26859;BME280;14429;48.346;16.338;2023-06-26T10:23:48;99703.69;;;26.74;46.30
26859;BME280;14429;48.346;16.338;2023-06-26T10:26:16;99700.34;;;26.78;46.48
26859;BME280;14429;48.346;16.338;2023-06-26T10:28:42;99696.56;;;26.85;46.14
26859;BME280;14429;48.346;16.338;2023-06-26T10:31:11;99702.00;;;26.73;46.25
26859;BME280;14429;48.346;16.338;2023-06-26T10:33:37;99693.56;;;26.68;46.35
26859;BME280;14429;48.346;16.338;2023-06-26T10:36:28;99697.19;;;26.75;46.66
26859;BME280;14429;48.346;16.338;2023-06-26T10:38:56;99699.50;;;26.78;46.49
26859;BME280;14429;48.346;16.338;2023-06-26T10:41:22;99698.88;;;26.95;45.71
26859;BME280;14429;48.346;16.338;2023-06-26T10:43:51;99692.56;;;26.94;45.47
26859;BME280;14429;48.346;16.338;2023-06-26T10:46:25;99694.69;;;27.18;43.37
26859;BME280;14429;48.346;16.338;2023-06-26T10:48:57;99692.81;;;27.18;45.18
26859;BME280;14429;48.346;16.338;2023-06-26T10:51:24;99691.97;;;27.18;44.43
26859;BME280;14429;48.346;16.338;2023-06-26T10:53:50;99694.91;;;26.97;45.79
26859;BME280;14429;48.346;16.338;2023-06-26T10:56:18;99683.56;;;27.19;43.02
26859;BME280;14429;48.346;16.338;2023-06-26T10:58:44;99681.44;;;27.66;42.78
26859;BME280;14429;48.346;16.338;2023-06-26T11:01:19;99686.47;;;27.82;40.87
26859;BME280;14429;48.346;16.338;2023-06-26T11:03:46;99677.03;;;27.46;42.25
26859;BME280;14429;48.346;16.338;2023-06-26T11:06:13;99686.94;;;27.72;43.73
26859;BME280;14429;48.346;16.338;2023-06-26T11:08:45;99675.97;;;27.53;44.36
26859;BME280;14429;48.346;16.338;2023-06-26T11:11:10;99686.09;;;27.46;44.77
26859;BME280;14429;48.346;16.338;2023-06-26T11:13:35;99683.56;;;27.32;43.97
26859;BME280;14429;48.346;16.338;2023-06-26T11:16:02;99680.81;;;27.64;42.22
26859;BME280;14429;48.346;16.338;2023-06-26T11:18:30;99677.63;;;27.80;42.11
26859;BME280;14429;48.346;16.338;2023-06-26T11:21:04;99670.88;;;27.95;41.17
26859;BME280;14429;48.346;16.338;2023-06-26T11:23:32;99669.03;;;27.51;43.71
26859;BME280;14429;48.346;16.338;2023-06-26T11:26:12;99665.00;;;27.40;44.67
26859;BME280;14429;48.346;16.338;2023-06-26T11:28:38;99659.97;;;27.37;44.09
26859;BME280;14429;48.346;16.338;2023-06-26T11:31:03;99667.91;;;27.84;42.21
26859;BME280;14429;48.346;16.338;2023-06-26T11:33:30;99670.31;;;27.48;44.62
26859;BME280;14429;48.346;16.338;2023-06-26T11:36:08;99668.13;;;27.82;43.65
26859;BME280;14429;48.346;16.338;2023-06-26T11:38:37;99667.94;;;27.90;42.76
26859;BME280;14429;48.346;16.338;2023-06-26T11:41:02;99667.09;;;27.90;42.36
26859;BME280;14429;48.346;16.338;2023-06-26T11:43:27;99651.50;;;27.58;44.60
26859;BME280;14429;48.346;16.338;2023-06-26T11:45:53;99654.91;;;27.60;44.77
26859;BME280;14429;48.346;16.338;2023-06-26T11:48:18;99663.75;;;27.49;45.29
26859;BME280;14429;48.346;16.338;2023-06-26T11:50:45;99649.81;;;27.63;42.74
26859;BME280;14429;48.346;16.338;2023-06-26T11:53:14;99644.13;;;27.27;44.96
26859;BME280;14429;48.346;16.338;2023-06-26T11:55:41;99646.69;;;27.41;43.34
26859;BME280;14429;48.346;16.338;2023-06-26T11:58:07;99634.63;;;27.61;45.01
26859;BME280;14429;48.346;16.338;2023-06-26T12:00:32;99630.75;;;28.00;40.40
26859;BME280;14429;48.346;16.338;2023-06-26T12:02:58;99639.66;;;27.83;43.72
26859;BME280;14429;48.346;16.338;2023-06-26T12:05:23;99631.22;;;27.91;41.65
26859;BME280;14429;48.346;16.338;2023-06-26T12:07:50;99632.34;;;28.27;40.88
26859;BME280;14429;48.346;16.338;2023-06-26T12:10:17;99629.88;;;28.06;40.17
26859;BME280;14429;48.346;16.338;2023-06-26T12:12:44;99629.28;;;28.04;43.00
26859;BME280;14429;48.346;16.338;2023-06-26T12:15:13;99628.03;;;27.94;43.71
26859;BME280;14429;48.346;16.338;2023-06-26T12:17:40;99618.34;;;27.91;43.99
26859;BME280;14429;48.346;16.338;2023-06-26T12:20:17;99626.16;;;27.88;43.96
26859;BME280;14429;48.346;16.338;2023-06-26T12:22:42;99619.69;;;27.44;44.77
26859;BME280;14429;48.346;16.338;2023-06-26T12:25:09;99618.59;;;27.71;44.33
26859;BME280;14429;48.346;16.338;2023-06-26T12:27:35;99612.56;;;28.12;43.04
26859;BME280;14429;48.346;16.338;2023-06-26T12:30:03;99619.41;;;27.90;44.48
26859;BME280;14429;48.346;16.338;2023-06-26T12:32:29;99609.94;;;28.30;40.81
26859;BME280;14429;48.346;16.338;2023-06-26T12:34:56;99608.81;;;28.50;39.10
26859;BME280;14429;48.346;16.338;2023-06-26T12:37:22;99604.94;;;28.14;42.95
26859;BME280;14429;48.346;16.338;2023-06-26T12:39:49;99600.78;;;28.05;42.07
26859;BME280;14429;48.346;16.338;2023-06-26T12:42:17;99602.59;;;28.17;40.98
26859;BME280;14429;48.346;16.338;2023-06-26T12:44:42;99599.97;;;28.42;39.88
26859;BME280;14429;48.346;16.338;2023-06-26T12:47:08;99608.69;;;28.69;39.24